sensor_id;sensor_type;location;lat;lon;timestamp;pressure;altitude;pressure_sealevel;temperature;humidity
71697;BME280;68167;59.120;37.898;2023-04-26T00:02:26;99172.97;;;11.57;42.33
71697;BME280;68167;59.120;37.898;2023-04-26T00:04:53;99163.09;;;11.58;42.27
71697;BME280;68167;59.120;37.898;2023-04-26T00:07:24;99172.69;;;11.59;42.15
71697;BME280;68167;59.120;37.898;2023-04-26T00:09:50;99166.63;;;11.48;42.79
71697;BME280;68167;59.120;37.898;2023-04-26T00:12:18;99106.19;;;11.04;42.56
71697;BME280;68167;59.120;37.898;2023-04-26T00:14:45;99156.56;;;11.40;42.70
71697;BME280;68167;59.120;37.898;2023-04-26T00:17:14;99166.13;;;11.46;43.00
71697;BME280;68167;59.120;37.898;2023-04-26T00:19:41;99102.13;;;11.12;43.37
71697;BME280;68167;59.120;37.898;2023-04-26T00:22:08;99062.09;;;10.88;43.58
71697;BME280;68167;59.120;37.898;2023-04-26T00:24:35;99102.06;;;11.22;44.01
71697;BME280;68167;59.120;37.898;2023-04-26T00:27:01;99160.16;;;11.59;44.72
71697;BME280;68167;59.120;37.898;2023-04-26T00:29:34;99145.00;;;11.54;44.29
71697;BME280;68167;59.120;37.898;2023-04-26T00:32:01;99144.41;;;11.63;44.17
71697;BME280;68167;59.120;37.898;2023-04-26T00:34:33;99138.78;;;11.64;43.81
71697;BME280;68167;59.120;37.898;2023-04-26T00:37:02;99090.75;;;11.40;44.28
71697;BME280;68167;59.120;37.898;2023-04-26T00:39:29;99099.16;;;11.52;44.92
71697;BME280;68167;59.120;37.898;2023-04-26T00:41:56;99142.41;;;11.78;44.92
71697;BME280;68167;59.120;37.898;2023-04-26T00:44:23;99132.28;;;11.75;44.95
71697;BME280;68167;59.120;37.898;2023-04-26T00:46:52;99124.56;;;11.74;45.10
71697;BME280;68167;59.120;37.898;2023-04-26T00:49:21;99074.94;;;11.49;45.28
71697;BME280;68167;59.120;37.898;2023-04-26T00:51:50;99129.31;;;11.82;45.53
71697;BME280;68167;59.120;37.898;2023-04-26T00:54:19;99139.16;;;11.86;45.79
71697;BME280;68167;59.120;37.898;2023-04-26T00:56:47;99084.22;;;11.57;46.33
71697;BME280;68167;59.120;37.898;2023-04-26T00:59:13;99132.97;;;11.91;46.29
71697;BME280;68167;59.120;37.898;2023-04-26T01:01:40;99115.69;;;11.83;46.36
71697;BME280;68167;59.120;37.898;2023-04-26T01:04:07;99129.47;;;11.96;46.27
71697;BME280;68167;59.120;37.898;2023-04-26T01:06:34;99128.09;;;11.98;46.76
71697;BME280;68167;59.120;37.898;2023-04-26T01:09:04;99107.69;;;11.83;46.86
71697;BME280;68167;59.120;37.898;2023-04-26T01:11:36;99121.19;;;11.97;46.85
71697;BME280;68167;59.120;37.898;2023-04-26T01:14:04;99088.00;;;11.79;47.34
71697;BME280;68167;59.120;37.898;2023-04-26T01:16:32;99110.31;;;11.88;47.30
71697;BME280;68167;59.120;37.898;2023-04-26T01:19:06;99114.94;;;11.78;46.21
71697;BME280;68167;59.120;37.898;2023-04-26T01:21:34;99116.03;;;11.72;47.21
71697;BME280;68167;59.120;37.898;2023-04-26T01:24:01;99021.25;;;11.03;47.24
71697;BME280;68167;59.120;37.898;2023-04-26T01:26:29;99082.25;;;11.33;47.41
71697;BME280;68167;59.120;37.898;2023-04-26T01:28:57;99057.13;;;11.10;47.60
71697;BME280;68167;59.120;37.898;2023-04-26T01:31:24;99099.38;;;11.27;47.82
71697;BME280;68167;59.120;37.898;2023-04-26T01:33:51;99032.56;;;10.84;47.74
71697;BME280;68167;59.120;37.898;2023-04-26T01:36:19;99106.34;;;11.18;47.94
71697;BME280;68167;59.120;37.898;2023-04-26T01:38:46;99087.91;;;10.93;47.40
71697;BME280;68167;59.120;37.898;2023-04-26T01:41:13;99056.91;;;10.63;47.25
71697;BME280;68167;59.120;37.898;2023-04-26T01:43:39;99062.00;;;10.59;47.68
71697;BME280;68167;59.120;37.898;2023-04-26T01:46:06;99055.66;;;10.45;47.51
71697;BME280;68167;59.120;37.898;2023-04-26T01:48:33;99102.13;;;10.68;48.18
71697;BME280;68167;59.120;37.898;2023-04-26T01:51:01;99088.09;;;10.52;47.92
71697;BME280;68167;59.120;37.898;2023-04-26T01:53:28;99077.00;;;10.40;48.16
71697;BME280;68167;59.120;37.898;2023-04-26T01:55:54;99088.16;;;10.42;47.90
71697;BME280;68167;59.120;37.898;2023-04-26T01:58:21;99047.53;;;10.16;48.16
71697;BME280;68167;59.120;37.898;2023-04-26T02:00:49;99044.91;;;10.06;48.50
71697;BME280;68167;59.120;37.898;2023-04-26T02:03:15;99042.78;;;10.03;48.73
71697;BME280;68167;59.120;37.898;2023-04-26T02:05:42;99077.59;;;10.21;49.16
71697;BME280;68167;59.120;37.898;2023-04-26T02:08:09;99078.13;;;10.18;49.17
71697;BME280;68167;59.120;37.898;2023-04-26T02:10:36;99054.75;;;10.00;49.32
71697;BME280;68167;59.120;37.898;2023-04-26T02:13:02;99083.72;;;10.12;49.31
71697;BME280;68167;59.120;37.898;2023-04-26T02:15:29;99055.84;;;9.99;49.10
71697;BME280;68167;59.120;37.898;2023-04-26T02:17:56;99078.94;;;10.14;49.81
71697;BME280;68167;59.120;37.898;2023-04-26T02:20:23;99055.84;;;9.99;50.08
71697;BME280;68167;59.120;37.898;2023-04-26T02:22:49;99028.47;;;9.88;50.13
71697;BME280;68167;59.120;37.898;2023-04-26T02:25:18;99070.94;;;10.24;49.12
71697;BME280;68167;59.120;37.898;2023-04-26T02:27:46;99014.66;;;9.91;49.68
71697;BME280;68167;59.120;37.898;2023-04-26T02:30:13;99068.00;;;10.26;49.30
71697;BME280;68167;59.120;37.898;2023-04-26T02:32:39;99054.47;;;10.22;49.39
71697;BME280;68167;59.120;37.898;2023-04-26T02:35:06;98990.19;;;9.89;49.83
71697;BME280;68167;59.120;37.898;2023-04-26T02:37:33;98997.88;;;10.01;49.03
71697;BME280;68167;59.120;37.898;2023-04-26T02:40:00;99048.81;;;10.39;49.12
71697;BME280;68167;59.120;37.898;2023-04-26T02:42:27;99061.00;;;10.45;49.28
71697;BME280;68167;59.120;37.898;2023-04-26T02:44:53;99050.06;;;10.46;48.92
71697;BME280;68167;59.120;37.898;2023-04-26T02:47:20;99059.66;;;10.47;49.12
71697;BME280;68167;59.120;37.898;2023-04-26T02:49:47;98990.91;;;10.10;48.70
71697;BME280;68167;59.120;37.898;2023-04-26T02:52:14;99043.41;;;10.49;48.74
71697;BME280;68167;59.120;37.898;2023-04-26T02:54:41;99017.16;;;10.37;49.49
71697;BME280;68167;59.120;37.898;2023-04-26T02:57:07;99036.75;;;10.51;48.74
71697;BME280;68167;59.120;37.898;2023-04-26T02:59:34;99044.16;;;10.60;49.75
71697;BME280;68167;59.120;37.898;2023-04-26T03:02:01;99020.47;;;10.58;49.42
71697;BME280;68167;59.120;37.898;2023-04-26T03:04:31;98975.66;;;10.36;49.18
71697;BME280;68167;59.120;37.898;2023-04-26T03:06:59;98972.16;;;10.41;48.66
71697;BME280;68167;59.120;37.898;2023-04-26T03:09:26;99029.38;;;10.82;48.83
71697;BME280;68167;59.120;37.898;2023-04-26T03:11:53;99026.72;;;10.82;48.38
71697;BME280;68167;59.120;37.898;2023-04-26T03:14:20;99028.22;;;10.99;49.09
71697;BME280;68167;59.120;37.898;2023-04-26T03:16:47;99000.53;;;10.95;48.97
71697;BME280;68167;59.120;37.898;2023-04-26T03:19:14;99013.16;;;11.13;48.61
71697;BME280;68167;59.120;37.898;2023-04-26T03:21:41;99014.44;;;11.20;48.82
71697;BME280;68167;59.120;37.898;2023-04-26T03:24:07;99025.25;;;11.34;48.40
71697;BME280;68167;59.120;37.898;2023-04-26T03:26:34;98969.50;;;11.09;48.33
71697;BME280;68167;59.120;37.898;2023-04-26T03:29:01;99002.00;;;11.40;47.89
71697;BME280;68167;59.120;37.898;2023-04-26T03:31:28;99024.50;;;11.58;47.78
71697;BME280;68167;59.120;37.898;2023-04-26T03:33:55;99019.13;;;11.63;48.11
71697;BME280;68167;59.120;37.898;2023-04-26T03:36:21;99006.88;;;11.62;47.52
71697;BME280;68167;59.120;37.898;2023-04-26T03:38:48;98991.66;;;11.62;47.62
71697;BME280;68167;59.120;37.898;2023-04-26T03:41:16;99011.75;;;11.78;47.53
71697;BME280;68167;59.120;37.898;2023-04-26T03:43:43;99003.69;;;11.83;47.25
71697;BME280;68167;59.120;37.898;2023-04-26T03:46:09;98997.00;;;11.86;47.25
71697;BME280;68167;59.120;37.898;2023-04-26T03:48:36;98950.38;;;11.60;47.13
71697;BME280;68167;59.120;37.898;2023-04-26T03:51:02;98997.22;;;11.90;47.19
71697;BME280;68167;59.120;37.898;2023-04-26T03:53:29;98991.97;;;11.84;47.28
71697;BME280;68167;59.120;37.898;2023-04-26T03:55:56;98989.47;;;11.93;47.42
71697;BME280;68167;59.120;37.898;2023-04-26T03:58:26;98931.44;;;11.61;47.29
71697;BME280;68167;59.120;37.898;2023-04-26T04:00:56;98996.72;;;12.11;47.82
71697;BME280;68167;59.120;37.898;2023-04-26T04:03:23;98988.94;;;12.15;47.73
71697;BME280;68167;59.120;37.898;2023-04-26T04:05:51;98948.59;;;11.98;47.50
71697;BME280;68167;59.120;37.898;2023-04-26T04:08:18;98985.56;;;12.28;47.10
71697;BME280;68167;59.120;37.898;2023-04-26T04:10:44;98992.31;;;12.39;47.44
71697;BME280;68167;59.120;37.898;2023-04-26T04:13:11;98945.97;;;12.16;47.68
71697;BME280;68167;59.120;37.898;2023-04-26T04:15:38;98977.31;;;12.43;47.69
71697;BME280;68167;59.120;37.898;2023-04-26T04:18:04;98931.19;;;12.24;47.69
71697;BME280;68167;59.120;37.898;2023-04-26T04:20:31;98966.78;;;12.52;47.64
71697;BME280;68167;59.120;37.898;2023-04-26T04:22:59;98993.47;;;12.71;47.55
71697;BME280;68167;59.120;37.898;2023-04-26T04:25:28;98971.84;;;12.72;47.86
71697;BME280;68167;59.120;37.898;2023-04-26T04:27:59;98926.47;;;12.53;48.01
71697;BME280;68167;59.120;37.898;2023-04-26T04:30:28;98963.09;;;12.85;48.15
71697;BME280;68167;59.120;37.898;2023-04-26T04:32:55;98972.13;;;13.03;47.78
71697;BME280;68167;59.120;37.898;2023-04-26T04:35:25;98927.72;;;12.75;47.98
71697;BME280;68167;59.120;37.898;2023-04-26T04:37:56;98971.53;;;13.06;48.04
71697;BME280;68167;59.120;37.898;2023-04-26T04:40:23;98891.97;;;12.57;48.47
71697;BME280;68167;59.120;37.898;2023-04-26T04:42:50;98966.78;;;13.03;49.04
71697;BME280;68167;59.120;37.898;2023-04-26T04:45:19;98914.75;;;12.68;49.84
71697;BME280;68167;59.120;37.898;2023-04-26T04:47:48;98907.47;;;12.55;50.41
71697;BME280;68167;59.120;37.898;2023-04-26T04:50:14;98967.22;;;12.78;50.94
71697;BME280;68167;59.120;37.898;2023-04-26T04:52:42;98909.59;;;12.39;51.35
71697;BME280;68167;59.120;37.898;2023-04-26T04:55:09;98910.66;;;12.38;51.60
71697;BME280;68167;59.120;37.898;2023-04-26T04:57:37;98957.75;;;12.67;52.23
71697;BME280;68167;59.120;37.898;2023-04-26T05:00:04;98938.22;;;12.52;52.10
71697;BME280;68167;59.120;37.898;2023-04-26T05:03:00;98918.03;;;12.46;52.37
71697;BME280;68167;59.120;37.898;2023-04-26T05:05:28;98946.88;;;12.63;52.32
71697;BME280;68167;59.120;37.898;2023-04-26T05:07:54;98954.81;;;12.68;52.50
71697;BME280;68167;59.120;37.898;2023-04-26T05:10:21;98940.53;;;12.59;53.43
71697;BME280;68167;59.120;37.898;2023-04-26T05:12:48;98915.94;;;12.43;53.76
71697;BME280;68167;59.120;37.898;2023-04-26T05:15:15;98937.56;;;12.61;53.66
71697;BME280;68167;59.120;37.898;2023-04-26T05:17:41;98929.34;;;12.57;54.67
71697;BME280;68167;59.120;37.898;2023-04-26T05:20:21;98911.09;;;12.45;55.00
71697;BME280;68167;59.120;37.898;2023-04-26T05:22:48;98922.69;;;12.54;54.88
71697;BME280;68167;59.120;37.898;2023-04-26T05:25:15;98915.34;;;12.46;55.49
71697;BME280;68167;59.120;37.898;2023-04-26T05:27:43;98878.25;;;12.31;55.90
71697;BME280;68167;59.120;37.898;2023-04-26T05:30:40;98884.09;;;12.33;55.66
71697;BME280;68167;59.120;37.898;2023-04-26T05:33:18;98885.34;;;12.36;56.13
71697;BME280;68167;59.120;37.898;2023-04-26T05:35:53;98922.03;;;12.63;56.53
71697;BME280;68167;59.120;37.898;2023-04-26T05:38:21;98899.25;;;12.51;57.31
71697;BME280;68167;59.120;37.898;2023-04-26T05:40:48;98880.72;;;12.41;57.19
71697;BME280;68167;59.120;37.898;2023-04-26T05:43:15;98918.78;;;12.66;57.58
71697;BME280;68167;59.120;37.898;2023-04-26T05:45:52;98910.06;;;12.60;56.91
71697;BME280;68167;59.120;37.898;2023-04-26T05:48:19;98876.81;;;12.52;58.03
71697;BME280;68167;59.120;37.898;2023-04-26T05:50:46;98907.94;;;12.76;58.30
71697;BME280;68167;59.120;37.898;2023-04-26T05:53:14;98908.09;;;12.84;58.27
71697;BME280;68167;59.120;37.898;2023-04-26T05:55:41;98904.53;;;12.89;58.56
71697;BME280;68167;59.120;37.898;2023-04-26T05:58:08;98901.47;;;12.96;58.70
71697;BME280;68167;59.120;37.898;2023-04-26T06:00:37;98901.94;;;12.84;59.22
71697;BME280;68167;59.120;37.898;2023-04-26T06:03:04;98845.88;;;12.51;59.06
71697;BME280;68167;59.120;37.898;2023-04-26T06:05:31;98875.69;;;12.72;59.15
71697;BME280;68167;59.120;37.898;2023-04-26T06:07:57;98892.56;;;12.86;59.50
71697;BME280;68167;59.120;37.898;2023-04-26T06:10:24;98859.19;;;12.70;59.64
71697;BME280;68167;59.120;37.898;2023-04-26T06:12:51;98812.22;;;12.37;59.51
71697;BME280;68167;59.120;37.898;2023-04-26T06:15:18;98882.53;;;12.78;60.54
71697;BME280;68167;59.120;37.898;2023-04-26T06:17:44;98834.31;;;12.56;60.06
71697;BME280;68167;59.120;37.898;2023-04-26T06:20:11;98853.84;;;12.70;60.38
71697;BME280;68167;59.120;37.898;2023-04-26T06:22:37;98902.28;;;13.10;60.65
71697;BME280;68167;59.120;37.898;2023-04-26T06:25:05;98830.91;;;12.83;60.83
71697;BME280;68167;59.120;37.898;2023-04-26T06:27:33;98836.16;;;12.88;60.82
71697;BME280;68167;59.120;37.898;2023-04-26T06:29:59;98857.44;;;13.07;60.65
71697;BME280;68167;59.120;37.898;2023-04-26T06:32:26;98859.53;;;13.10;61.03
71697;BME280;68167;59.120;37.898;2023-04-26T06:34:53;98856.84;;;13.10;61.12
71697;BME280;68167;59.120;37.898;2023-04-26T06:37:20;98873.09;;;13.13;61.06
71697;BME280;68167;59.120;37.898;2023-04-26T06:39:47;98864.88;;;13.10;61.18
71697;BME280;68167;59.120;37.898;2023-04-26T06:42:14;98881.34;;;13.17;61.73
71697;BME280;68167;59.120;37.898;2023-04-26T06:45:12;98835.00;;;12.94;61.21
71697;BME280;68167;59.120;37.898;2023-04-26T06:47:39;98818.06;;;12.85;60.76
71697;BME280;68167;59.120;37.898;2023-04-26T06:50:07;98871.19;;;13.14;61.54
71697;BME280;68167;59.120;37.898;2023-04-26T06:52:33;98861.41;;;13.09;61.88
71697;BME280;68167;59.120;37.898;2023-04-26T06:55:01;98878.56;;;13.22;61.83
71697;BME280;68167;59.120;37.898;2023-04-26T06:57:32;98815.00;;;12.92;61.89
71697;BME280;68167;59.120;37.898;2023-04-26T06:59:59;98853.13;;;13.25;61.80
71697;BME280;68167;59.120;37.898;2023-04-26T07:02:26;98854.50;;;13.22;62.16
71697;BME280;68167;59.120;37.898;2023-04-26T07:04:52;98823.59;;;13.02;62.36
71697;BME280;68167;59.120;37.898;2023-04-26T07:07:19;98815.69;;;12.97;62.20
71697;BME280;68167;59.120;37.898;2023-04-26T07:09:46;98858.09;;;13.31;62.42
71697;BME280;68167;59.120;37.898;2023-04-26T07:12:13;98859.06;;;13.35;62.88
71697;BME280;68167;59.120;37.898;2023-04-26T07:14:39;98858.47;;;13.38;62.84
71697;BME280;68167;59.120;37.898;2023-04-26T07:17:09;98828.59;;;13.23;62.76
71697;BME280;68167;59.120;37.898;2023-04-26T07:19:36;98818.78;;;13.18;62.81
71697;BME280;68167;59.120;37.898;2023-04-26T07:22:03;98807.00;;;13.19;62.97
71697;BME280;68167;59.120;37.898;2023-04-26T07:24:30;98845.81;;;13.44;63.44
71697;BME280;68167;59.120;37.898;2023-04-26T07:26:57;98854.41;;;13.41;63.30
71697;BME280;68167;59.120;37.898;2023-04-26T07:29:24;98855.00;;;13.38;63.21
71697;BME280;68167;59.120;37.898;2023-04-26T07:31:50;98848.47;;;13.30;63.62
71697;BME280;68167;59.120;37.898;2023-04-26T07:34:17;98850.47;;;13.25;63.69
71697;BME280;68167;59.120;37.898;2023-04-26T07:36:44;98808.06;;;13.04;63.64
71697;BME280;68167;59.120;37.898;2023-04-26T07:39:11;98785.31;;;12.93;63.70
71697;BME280;68167;59.120;37.898;2023-04-26T07:41:37;98812.13;;;13.02;64.41
71697;BME280;68167;59.120;37.898;2023-04-26T07:44:04;98715.94;;;12.47;64.33
71697;BME280;68167;59.120;37.898;2023-04-26T07:46:32;98791.94;;;13.09;64.19
71697;BME280;68167;59.120;37.898;2023-04-26T07:49:00;98806.41;;;13.22;63.91
71697;BME280;68167;59.120;37.898;2023-04-26T07:51:27;98839.88;;;13.47;64.35
71697;BME280;68167;59.120;37.898;2023-04-26T07:53:53;98707.16;;;12.60;64.52
71697;BME280;68167;59.120;37.898;2023-04-26T07:56:23;98745.44;;;12.83;64.63
71697;BME280;68167;59.120;37.898;2023-04-26T07:58:49;98829.38;;;13.37;64.66
71697;BME280;68167;59.120;37.898;2023-04-26T08:01:16;98781.94;;;13.01;64.82
71697;BME280;68167;59.120;37.898;2023-04-26T08:03:43;98789.25;;;13.09;64.89
71697;BME280;68167;59.120;37.898;2023-04-26T08:06:10;98767.50;;;13.02;64.80
71697;BME280;68167;59.120;37.898;2023-04-26T08:08:37;98810.66;;;13.37;64.79
71697;BME280;68167;59.120;37.898;2023-04-26T08:11:10;98818.78;;;13.45;65.31
71697;BME280;68167;59.120;37.898;2023-04-26T08:13:37;98821.13;;;13.61;65.45
71697;BME280;68167;59.120;37.898;2023-04-26T08:16:03;98811.53;;;13.60;64.84
71697;BME280;68167;59.120;37.898;2023-04-26T08:18:30;98756.91;;;13.38;65.00
71697;BME280;68167;59.120;37.898;2023-04-26T08:20:57;98808.50;;;13.75;65.18
71697;BME280;68167;59.120;37.898;2023-04-26T08:23:24;98793.34;;;13.70;65.01
71697;BME280;68167;59.120;37.898;2023-04-26T08:25:50;98765.56;;;13.58;64.77
71697;BME280;68167;59.120;37.898;2023-04-26T08:28:17;98761.63;;;13.55;64.58
71697;BME280;68167;59.120;37.898;2023-04-26T08:30:43;98804.44;;;13.77;64.89
71697;BME280;68167;59.120;37.898;2023-04-26T08:33:10;98766.97;;;13.55;64.90
71697;BME280;68167;59.120;37.898;2023-04-26T08:35:37;98772.69;;;13.62;65.01
71697;BME280;68167;59.120;37.898;2023-04-26T08:38:03;98801.22;;;13.89;64.79
71697;BME280;68167;59.120;37.898;2023-04-26T08:40:30;98805.72;;;13.80;64.68
71697;BME280;68167;59.120;37.898;2023-04-26T08:42:58;98757.66;;;13.52;64.99
71697;BME280;68167;59.120;37.898;2023-04-26T08:45:24;98799.88;;;13.78;64.82
71697;BME280;68167;59.120;37.898;2023-04-26T08:48:05;98789.66;;;13.80;64.76
71697;BME280;68167;59.120;37.898;2023-04-26T08:50:37;98798.25;;;13.91;65.05
71697;BME280;68167;59.120;37.898;2023-04-26T08:53:04;98733.19;;;13.59;65.26
71697;BME280;68167;59.120;37.898;2023-04-26T08:55:32;98771.19;;;13.92;64.59
71697;BME280;68167;59.120;37.898;2023-04-26T08:58:00;98778.19;;;14.02;64.91
71697;BME280;68167;59.120;37.898;2023-04-26T09:00:28;98778.19;;;14.02;64.68
71697;BME280;68167;59.120;37.898;2023-04-26T09:02:54;98749.72;;;13.83;64.62
71697;BME280;68167;59.120;37.898;2023-04-26T09:05:21;98777.84;;;14.17;64.61
71697;BME280;68167;59.120;37.898;2023-04-26T09:07:56;98788.78;;;14.29;64.83
71697;BME280;68167;59.120;37.898;2023-04-26T09:10:26;98728.94;;;14.03;64.48
71697;BME280;68167;59.120;37.898;2023-04-26T09:12:53;98766.19;;;14.44;64.18
71697;BME280;68167;59.120;37.898;2023-04-26T09:15:22;98703.50;;;14.14;63.89
71697;BME280;68167;59.120;37.898;2023-04-26T09:17:49;98716.16;;;14.31;63.62
71697;BME280;68167;59.120;37.898;2023-04-26T09:20:27;98748.16;;;14.58;63.27
71697;BME280;68167;59.120;37.898;2023-04-26T09:23:06;98752.00;;;14.74;63.19
71697;BME280;68167;59.120;37.898;2023-04-26T09:25:35;98773.47;;;14.83;62.77
71697;BME280;68167;59.120;37.898;2023-04-26T09:28:03;98694.44;;;14.32;63.04
71697;BME280;68167;59.120;37.898;2023-04-26T09:30:29;98752.16;;;14.69;62.72
71697;BME280;68167;59.120;37.898;2023-04-26T09:32:58;98723.53;;;14.47;62.10
71697;BME280;68167;59.120;37.898;2023-04-26T09:35:30;98764.78;;;14.77;62.01
71697;BME280;68167;59.120;37.898;2023-04-26T09:38:15;98753.44;;;14.80;62.54
71697;BME280;68167;59.120;37.898;2023-04-26T09:40:45;98758.97;;;14.84;61.86
71697;BME280;68167;59.120;37.898;2023-04-26T09:43:15;98742.56;;;14.77;61.78
71697;BME280;68167;59.120;37.898;2023-04-26T09:45:46;98718.56;;;14.63;61.30
71697;BME280;68167;59.120;37.898;2023-04-26T09:48:18;98752.53;;;14.85;61.21
71697;BME280;68167;59.120;37.898;2023-04-26T09:50:49;98743.03;;;14.79;61.39
71697;BME280;68167;59.120;37.898;2023-04-26T09:53:48;98752.34;;;14.81;61.32
71697;BME280;68167;59.120;37.898;2023-04-26T09:56:18;98711.88;;;14.52;61.80
71697;BME280;68167;59.120;37.898;2023-04-26T10:01:14;98755.97;;;14.77;62.14
71697;BME280;68167;59.120;37.898;2023-04-26T10:03:44;98735.28;;;14.69;62.24
71697;BME280;68167;59.120;37.898;2023-04-26T10:06:11;98690.66;;;14.33;62.13
71697;BME280;68167;59.120;37.898;2023-04-26T10:08:38;98705.88;;;14.46;62.26
71697;BME280;68167;59.120;37.898;2023-04-26T10:11:05;98734.66;;;14.72;62.16
71697;BME280;68167;59.120;37.898;2023-04-26T10:13:40;98738.31;;;14.76;61.74
71697;BME280;68167;59.120;37.898;2023-04-26T10:16:07;98691.88;;;14.49;62.43
71697;BME280;68167;59.120;37.898;2023-04-26T10:18:35;98749.72;;;14.90;62.51
71697;BME280;68167;59.120;37.898;2023-04-26T10:21:20;98664.13;;;14.45;61.91
71697;BME280;68167;59.120;37.898;2023-04-26T10:23:48;98737.56;;;15.01;62.80
71697;BME280;68167;59.120;37.898;2023-04-26T10:26:49;98754.16;;;15.12;62.33
71697;BME280;68167;59.120;37.898;2023-04-26T10:29:20;98752.44;;;15.16;61.61
71697;BME280;68167;59.120;37.898;2023-04-26T10:34:28;98660.91;;;14.66;61.14
71697;BME280;68167;59.120;37.898;2023-04-26T10:37:25;98750.25;;;15.27;61.20
71697;BME280;68167;59.120;37.898;2023-04-26T10:40:22;98752.94;;;15.27;60.53
71697;BME280;68167;59.120;37.898;2023-04-26T10:42:49;98754.47;;;15.10;60.92
71697;BME280;68167;59.120;37.898;2023-04-26T10:45:27;98757.16;;;15.10;60.70
71697;BME280;68167;59.120;37.898;2023-04-26T10:59:13;98735.16;;;15.91;59.90
71697;BME280;68167;59.120;37.898;2023-04-26T11:01:40;98692.06;;;15.88;59.61
71697;BME280;68167;59.120;37.898;2023-04-26T11:04:08;98723.69;;;16.29;58.26
71697;BME280;68167;59.120;37.898;2023-04-26T11:06:55;98738.63;;;16.64;58.68
71697;BME280;68167;59.120;37.898;2023-04-26T11:09:40;98731.94;;;16.79;58.70
71697;BME280;68167;59.120;37.898;2023-04-26T11:12:14;98730.97;;;16.84;56.80
71697;BME280;68167;59.120;37.898;2023-04-26T11:14:43;98737.59;;;16.86;56.58
71697;BME280;68167;59.120;37.898;2023-04-26T11:17:11;98731.00;;;16.75;56.15
71697;BME280;68167;59.120;37.898;2023-04-26T11:19:41;98732.72;;;16.79;56.33
71697;BME280;68167;59.120;37.898;2023-04-26T11:22:08;98722.03;;;16.62;56.55
71697;BME280;68167;59.120;37.898;2023-04-26T11:24:35;98726.78;;;16.57;56.62
71697;BME280;68167;59.120;37.898;2023-04-26T11:27:11;98732.66;;;16.50;56.76
71697;BME280;68167;59.120;37.898;2023-04-26T11:29:38;98728.91;;;16.34;56.71
71697;BME280;68167;59.120;37.898;2023-04-26T11:32:05;98717.13;;;16.09;57.17
71697;BME280;68167;59.120;37.898;2023-04-26T11:34:36;98735.13;;;16.17;56.91
71697;BME280;68167;59.120;37.898;2023-04-26T11:37:07;98730.09;;;15.98;57.25
71697;BME280;68167;59.120;37.898;2023-04-26T11:39:35;98737.19;;;16.11;57.54
71697;BME280;68167;59.120;37.898;2023-04-26T11:42:11;98702.47;;;15.98;57.38
71697;BME280;68167;59.120;37.898;2023-04-26T11:44:39;98702.16;;;15.99;57.54
71697;BME280;68167;59.120;37.898;2023-04-26T11:47:12;98735.75;;;16.23;56.77
71697;BME280;68167;59.120;37.898;2023-04-26T11:49:38;98711.31;;;15.98;56.68
71697;BME280;68167;59.120;37.898;2023-04-26T11:52:05;98738.91;;;16.16;57.08
71697;BME280;68167;59.120;37.898;2023-04-26T11:54:34;98698.84;;;15.94;56.96
71697;BME280;68167;59.120;37.898;2023-04-26T11:57:16;98703.13;;;15.86;56.88
71697;BME280;68167;59.120;37.898;2023-04-26T11:59:43;98740.84;;;16.07;57.53
71697;BME280;68167;59.120;37.898;2023-04-26T12:02:10;98684.31;;;15.86;57.63
71697;BME280;68167;59.120;37.898;2023-04-26T12:04:37;98681.63;;;15.95;57.35
71697;BME280;68167;59.120;37.898;2023-04-26T12:07:06;98732.59;;;16.21;56.95
71697;BME280;68167;59.120;37.898;2023-04-26T12:09:33;98676.28;;;15.77;57.31
71697;BME280;68167;59.120;37.898;2023-04-26T12:12:01;98730.09;;;15.98;57.28
71697;BME280;68167;59.120;37.898;2023-04-26T12:14:35;98718.75;;;15.93;57.45
71697;BME280;68167;59.120;37.898;2023-04-26T12:17:03;98724.41;;;16.00;57.78
71697;BME280;68167;59.120;37.898;2023-04-26T12:19:38;98674.25;;;15.74;57.55
71697;BME280;68167;59.120;37.898;2023-04-26T12:22:06;98714.63;;;15.87;58.00
71697;BME280;68167;59.120;37.898;2023-04-26T12:24:33;98723.47;;;15.87;57.63
71697;BME280;68167;59.120;37.898;2023-04-26T12:27:04;98703.13;;;15.77;58.26
71697;BME280;68167;59.120;37.898;2023-04-26T12:29:32;98735.78;;;15.97;57.82
71697;BME280;68167;59.120;37.898;2023-04-26T12:31:59;98716.69;;;15.81;58.01
71697;BME280;68167;59.120;37.898;2023-04-26T12:34:26;98740.53;;;15.82;58.16
71697;BME280;68167;59.120;37.898;2023-04-26T12:36:52;98689.25;;;15.49;58.52
71697;BME280;68167;59.120;37.898;2023-04-26T12:39:20;98686.38;;;15.37;58.72
71697;BME280;68167;59.120;37.898;2023-04-26T12:41:46;98714.16;;;15.50;59.05
71697;BME280;68167;59.120;37.898;2023-04-26T12:44:12;98682.13;;;15.28;59.33
71697;BME280;68167;59.120;37.898;2023-04-26T12:46:39;98729.47;;;15.49;59.40
71697;BME280;68167;59.120;37.898;2023-04-26T12:49:06;98684.00;;;15.19;59.68
71697;BME280;68167;59.120;37.898;2023-04-26T12:51:33;98723.47;;;15.44;60.37
71697;BME280;68167;59.120;37.898;2023-04-26T12:53:59;98704.22;;;15.33;60.10
71697;BME280;68167;59.120;37.898;2023-04-26T12:56:28;98729.94;;;15.43;60.52
71697;BME280;68167;59.120;37.898;2023-04-26T12:58:54;98726.00;;;15.40;60.54
71697;BME280;68167;59.120;37.898;2023-04-26T13:01:21;98682.09;;;15.02;60.36
71697;BME280;68167;59.120;37.898;2023-04-26T13:03:48;98684.13;;;14.96;60.32
71697;BME280;68167;59.120;37.898;2023-04-26T13:06:14;98680.81;;;14.91;60.95
71697;BME280;68167;59.120;37.898;2023-04-26T13:08:41;98710.00;;;15.09;61.56
71697;BME280;68167;59.120;37.898;2023-04-26T13:11:09;98717.91;;;15.14;61.72
71697;BME280;68167;59.120;37.898;2023-04-26T13:13:38;98719.03;;;15.22;61.91
71697;BME280;68167;59.120;37.898;2023-04-26T13:16:05;98683.66;;;15.03;61.30